sensor_id;sensor_type;location;lat;lon;timestamp;P1;durP1;ratioP1;P2;durP2;ratioP2
64816;SDS011;53289;45.602;11.904;2023-04-03T00:01:39;5.85;;;4.22;;
64816;SDS011;53289;45.602;11.904;2023-04-03T00:04:05;7.95;;;4.18;;
64816;SDS011;53289;45.602;11.904;2023-04-03T00:06:31;6.15;;;4.35;;
64816;SDS011;53289;45.602;11.904;2023-04-03T00:08:57;6.80;;;4.47;;
64816;SDS011;53289;45.602;11.904;2023-04-03T00:11:24;7.15;;;4.40;;
64816;SDS011;53289;45.602;11.904;2023-04-03T00:13:50;5.22;;;3.85;;
64816;SDS011;53289;45.602;11.904;2023-04-03T00:16:16;6.72;;;4.38;;
64816;SDS011;53289;45.602;11.904;2023-04-03T00:18:43;6.90;;;4.20;;
64816;SDS011;53289;45.602;11.904;2023-04-03T00:21:09;7.55;;;4.38;;
64816;SDS011;53289;45.602;11.904;2023-04-03T00:23:38;6.80;;;4.30;;
64816;SDS011;53289;45.602;11.904;2023-04-03T00:26:04;5.93;;;4.15;;
64816;SDS011;53289;45.602;11.904;2023-04-03T00:28:30;7.75;;;4.43;;
64816;SDS011;53289;45.602;11.904;2023-04-03T00:30:56;6.60;;;4.10;;
64816;SDS011;53289;45.602;11.904;2023-04-03T00:33:23;7.03;;;4.15;;
64816;SDS011;53289;45.602;11.904;2023-04-03T00:35:49;6.90;;;4.53;;
64816;SDS011;53289;45.602;11.904;2023-04-03T00:38:16;7.43;;;4.40;;
64816;SDS011;53289;45.602;11.904;2023-04-03T00:40:43;6.30;;;3.92;;
64816;SDS011;53289;45.602;11.904;2023-04-03T00:43:11;5.47;;;4.10;;
64816;SDS011;53289;45.602;11.904;2023-04-03T00:45:41;5.07;;;3.95;;
64816;SDS011;53289;45.602;11.904;2023-04-03T00:48:13;7.47;;;4.15;;
64816;SDS011;53289;45.602;11.904;2023-04-03T00:51:03;5.03;;;3.78;;
64816;SDS011;53289;45.602;11.904;2023-04-03T00:53:33;4.90;;;3.58;;
64816;SDS011;53289;45.602;11.904;2023-04-03T00:56:02;6.40;;;3.88;;
64816;SDS011;53289;45.602;11.904;2023-04-03T00:58:37;5.15;;;3.92;;
64816;SDS011;53289;45.602;11.904;2023-04-03T01:01:11;5.47;;;3.78;;
64816;SDS011;53289;45.602;11.904;2023-04-03T01:03:41;5.30;;;3.80;;
64816;SDS011;53289;45.602;11.904;2023-04-03T01:06:07;6.10;;;4.00;;
64816;SDS011;53289;45.602;11.904;2023-04-03T01:08:33;5.60;;;4.13;;
64816;SDS011;53289;45.602;11.904;2023-04-03T01:11:00;6.40;;;4.13;;
64816;SDS011;53289;45.602;11.904;2023-04-03T01:13:30;5.75;;;3.90;;
64816;SDS011;53289;45.602;11.904;2023-04-03T01:16:01;5.05;;;3.78;;
64816;SDS011;53289;45.602;11.904;2023-04-03T01:18:28;4.68;;;3.65;;
64816;SDS011;53289;45.602;11.904;2023-04-03T01:26:37;5.75;;;4.10;;
64816;SDS011;53289;45.602;11.904;2023-04-03T01:29:03;5.30;;;3.70;;
64816;SDS011;53289;45.602;11.904;2023-04-03T01:34:16;4.68;;;3.60;;
64816;SDS011;53289;45.602;11.904;2023-04-03T01:36:42;5.68;;;3.67;;
64816;SDS011;53289;45.602;11.904;2023-04-03T01:39:08;5.45;;;3.60;;
64816;SDS011;53289;45.602;11.904;2023-04-03T01:41:34;5.30;;;3.60;;
64816;SDS011;53289;45.602;11.904;2023-04-03T01:44:00;4.90;;;3.70;;
64816;SDS011;53289;45.602;11.904;2023-04-03T01:46:26;4.38;;;3.45;;
64816;SDS011;53289;45.602;11.904;2023-04-03T01:48:52;5.82;;;3.83;;
64816;SDS011;53289;45.602;11.904;2023-04-03T01:51:18;5.55;;;3.42;;
64816;SDS011;53289;45.602;11.904;2023-04-03T01:53:44;5.45;;;4.15;;
64816;SDS011;53289;45.602;11.904;2023-04-03T01:56:10;5.57;;;3.70;;
64816;SDS011;53289;45.602;11.904;2023-04-03T01:58:36;4.90;;;3.63;;
64816;SDS011;53289;45.602;11.904;2023-04-03T02:01:02;4.60;;;3.42;;
64816;SDS011;53289;45.602;11.904;2023-04-03T02:03:28;5.97;;;3.78;;
64816;SDS011;53289;45.602;11.904;2023-04-03T02:05:54;5.40;;;3.97;;
64816;SDS011;53289;45.602;11.904;2023-04-03T02:08:20;5.35;;;3.80;;
64816;SDS011;53289;45.602;11.904;2023-04-03T02:10:47;5.30;;;3.45;;
64816;SDS011;53289;45.602;11.904;2023-04-03T02:13:14;6.53;;;4.15;;
64816;SDS011;53289;45.602;11.904;2023-04-03T02:15:40;5.13;;;3.58;;
64816;SDS011;53289;45.602;11.904;2023-04-03T02:18:06;5.80;;;3.92;;
64816;SDS011;53289;45.602;11.904;2023-04-03T02:20:32;4.93;;;3.63;;
64816;SDS011;53289;45.602;11.904;2023-04-03T02:22:59;4.60;;;3.67;;
64816;SDS011;53289;45.602;11.904;2023-04-03T02:25:25;4.55;;;3.40;;
64816;SDS011;53289;45.602;11.904;2023-04-03T02:27:51;5.40;;;3.85;;
64816;SDS011;53289;45.602;11.904;2023-04-03T02:30:16;4.50;;;3.38;;
64816;SDS011;53289;45.602;11.904;2023-04-03T02:32:43;4.45;;;3.30;;
64816;SDS011;53289;45.602;11.904;2023-04-03T02:35:09;5.00;;;3.60;;
64816;SDS011;53289;45.602;11.904;2023-04-03T02:37:36;5.00;;;3.70;;
64816;SDS011;53289;45.602;11.904;2023-04-03T02:40:03;6.13;;;3.42;;
64816;SDS011;53289;45.602;11.904;2023-04-03T02:42:30;4.78;;;3.60;;
64816;SDS011;53289;45.602;11.904;2023-04-03T02:44:55;4.25;;;3.67;;
64816;SDS011;53289;45.602;11.904;2023-04-03T02:47:22;5.05;;;3.60;;
64816;SDS011;53289;45.602;11.904;2023-04-03T02:49:48;3.70;;;3.13;;
64816;SDS011;53289;45.602;11.904;2023-04-03T02:52:14;4.30;;;3.60;;
64816;SDS011;53289;45.602;11.904;2023-04-03T02:54:40;4.05;;;3.00;;
64816;SDS011;53289;45.602;11.904;2023-04-03T02:57:06;4.88;;;3.58;;
64816;SDS011;53289;45.602;11.904;2023-04-03T02:59:34;4.65;;;3.30;;
64816;SDS011;53289;45.602;11.904;2023-04-03T03:02:05;3.85;;;3.10;;
64816;SDS011;53289;45.602;11.904;2023-04-03T03:04:32;4.57;;;3.00;;
64816;SDS011;53289;45.602;11.904;2023-04-03T03:06:59;5.00;;;2.90;;
64816;SDS011;53289;45.602;11.904;2023-04-03T03:09:24;3.83;;;2.92;;
64816;SDS011;53289;45.602;11.904;2023-04-03T03:11:51;4.78;;;3.10;;
64816;SDS011;53289;45.602;11.904;2023-04-03T03:14:18;3.53;;;2.83;;
64816;SDS011;53289;45.602;11.904;2023-04-03T03:16:44;4.05;;;2.90;;
64816;SDS011;53289;45.602;11.904;2023-04-03T03:19:10;4.47;;;3.15;;
64816;SDS011;53289;45.602;11.904;2023-04-03T03:21:36;4.43;;;3.30;;
64816;SDS011;53289;45.602;11.904;2023-04-03T03:24:02;3.63;;;3.00;;
64816;SDS011;53289;45.602;11.904;2023-04-03T03:26:28;3.05;;;2.75;;
64816;SDS011;53289;45.602;11.904;2023-04-03T03:28:54;3.65;;;2.60;;
64816;SDS011;53289;45.602;11.904;2023-04-03T03:31:21;3.50;;;2.72;;
64816;SDS011;53289;45.602;11.904;2023-04-03T03:33:47;4.85;;;2.97;;
64816;SDS011;53289;45.602;11.904;2023-04-03T03:36:13;3.78;;;2.83;;
64816;SDS011;53289;45.602;11.904;2023-04-03T03:38:39;3.45;;;2.70;;
64816;SDS011;53289;45.602;11.904;2023-04-03T03:41:05;4.22;;;2.85;;
64816;SDS011;53289;45.602;11.904;2023-04-03T03:43:31;4.68;;;3.08;;
64816;SDS011;53289;45.602;11.904;2023-04-03T03:45:57;3.92;;;2.75;;
64816;SDS011;53289;45.602;11.904;2023-04-03T03:48:24;3.35;;;2.42;;
64816;SDS011;53289;45.602;11.904;2023-04-03T03:50:50;4.07;;;2.85;;
64816;SDS011;53289;45.602;11.904;2023-04-03T03:53:16;3.95;;;2.85;;
64816;SDS011;53289;45.602;11.904;2023-04-03T03:55:42;3.45;;;2.45;;
64816;SDS011;53289;45.602;11.904;2023-04-03T03:58:09;4.15;;;2.60;;
64816;SDS011;53289;45.602;11.904;2023-04-03T04:00:34;3.08;;;2.50;;
64816;SDS011;53289;45.602;11.904;2023-04-03T04:03:00;2.47;;;2.28;;
64816;SDS011;53289;45.602;11.904;2023-04-03T04:05:26;5.78;;;2.60;;
64816;SDS011;53289;45.602;11.904;2023-04-03T04:07:52;3.53;;;2.45;;
64816;SDS011;53289;45.602;11.904;2023-04-03T04:10:18;3.10;;;2.72;;
64816;SDS011;53289;45.602;11.904;2023-04-03T04:12:44;3.03;;;2.33;;
64816;SDS011;53289;45.602;11.904;2023-04-03T04:15:10;2.97;;;2.45;;
64816;SDS011;53289;45.602;11.904;2023-04-03T04:17:36;2.95;;;2.50;;
64816;SDS011;53289;45.602;11.904;2023-04-03T04:20:03;2.90;;;2.20;;
64816;SDS011;53289;45.602;11.904;2023-04-03T04:22:30;3.80;;;2.78;;
64816;SDS011;53289;45.602;11.904;2023-04-03T04:24:56;2.28;;;2.08;;
64816;SDS011;53289;45.602;11.904;2023-04-03T04:27:22;2.28;;;2.08;;
64816;SDS011;53289;45.602;11.904;2023-04-03T04:29:48;3.58;;;2.60;;
64816;SDS011;53289;45.602;11.904;2023-04-03T04:32:14;4.28;;;2.70;;
64816;SDS011;53289;45.602;11.904;2023-04-03T04:34:40;3.50;;;2.67;;
64816;SDS011;53289;45.602;11.904;2023-04-03T04:37:06;3.10;;;2.63;;
64816;SDS011;53289;45.602;11.904;2023-04-03T04:39:32;3.92;;;2.78;;
64816;SDS011;53289;45.602;11.904;2023-04-03T04:41:58;3.85;;;2.70;;
64816;SDS011;53289;45.602;11.904;2023-04-03T04:44:24;3.50;;;2.75;;
64816;SDS011;53289;45.602;11.904;2023-04-03T04:46:50;4.05;;;2.90;;
64816;SDS011;53289;45.602;11.904;2023-04-03T04:49:15;4.35;;;2.53;;
64816;SDS011;53289;45.602;11.904;2023-04-03T04:51:41;2.85;;;2.55;;
64816;SDS011;53289;45.602;11.904;2023-04-03T04:54:07;4.15;;;2.70;;
64816;SDS011;53289;45.602;11.904;2023-04-03T04:56:33;3.95;;;3.00;;
64816;SDS011;53289;45.602;11.904;2023-04-03T04:58:59;4.32;;;2.38;;
64816;SDS011;53289;45.602;11.904;2023-04-03T05:01:25;2.80;;;2.47;;
64816;SDS011;53289;45.602;11.904;2023-04-03T05:03:50;3.60;;;2.75;;
64816;SDS011;53289;45.602;11.904;2023-04-03T05:06:17;4.72;;;2.60;;
64816;SDS011;53289;45.602;11.904;2023-04-03T05:08:43;4.57;;;2.90;;
64816;SDS011;53289;45.602;11.904;2023-04-03T05:11:09;4.70;;;3.08;;
64816;SDS011;53289;45.602;11.904;2023-04-03T05:13:37;4.38;;;2.70;;
64816;SDS011;53289;45.602;11.904;2023-04-03T05:16:03;4.47;;;2.53;;
64816;SDS011;53289;45.602;11.904;2023-04-03T05:18:29;4.80;;;2.40;;
64816;SDS011;53289;45.602;11.904;2023-04-03T05:20:55;5.35;;;2.70;;
64816;SDS011;53289;45.602;11.904;2023-04-03T05:23:21;3.75;;;2.60;;
64816;SDS011;53289;45.602;11.904;2023-04-03T05:25:47;3.83;;;2.33;;
64816;SDS011;53289;45.602;11.904;2023-04-03T05:28:13;5.03;;;2.30;;
64816;SDS011;53289;45.602;11.904;2023-04-03T05:30:39;5.35;;;2.40;;
64816;SDS011;53289;45.602;11.904;2023-04-03T05:33:05;5.07;;;2.30;;
64816;SDS011;53289;45.602;11.904;2023-04-03T05:35:32;5.97;;;2.60;;
64816;SDS011;53289;45.602;11.904;2023-04-03T05:37:58;6.85;;;2.50;;
64816;SDS011;53289;45.602;11.904;2023-04-03T05:40:23;6.47;;;3.20;;
64816;SDS011;53289;45.602;11.904;2023-04-03T05:42:50;6.30;;;2.67;;
64816;SDS011;53289;45.602;11.904;2023-04-03T05:45:16;6.57;;;2.60;;
64816;SDS011;53289;45.602;11.904;2023-04-03T05:47:43;5.18;;;2.80;;
64816;SDS011;53289;45.602;11.904;2023-04-03T05:50:09;4.53;;;2.17;;
64816;SDS011;53289;45.602;11.904;2023-04-03T05:52:36;6.03;;;2.50;;
64816;SDS011;53289;45.602;11.904;2023-04-03T05:55:05;4.07;;;2.50;;
64816;SDS011;53289;45.602;11.904;2023-04-03T05:57:33;5.45;;;2.53;;
64816;SDS011;53289;45.602;11.904;2023-04-03T05:59:59;4.90;;;2.50;;
64816;SDS011;53289;45.602;11.904;2023-04-03T06:02:25;4.00;;;2.40;;
64816;SDS011;53289;45.602;11.904;2023-04-03T06:04:51;4.78;;;1.95;;
64816;SDS011;53289;45.602;11.904;2023-04-03T06:07:18;3.83;;;2.22;;
64816;SDS011;53289;45.602;11.904;2023-04-03T06:09:47;5.32;;;2.28;;
64816;SDS011;53289;45.602;11.904;2023-04-03T06:12:14;8.77;;;2.35;;
64816;SDS011;53289;45.602;11.904;2023-04-03T06:14:40;4.70;;;2.42;;
64816;SDS011;53289;45.602;11.904;2023-04-03T06:17:07;3.60;;;2.08;;
64816;SDS011;53289;45.602;11.904;2023-04-03T06:19:34;4.85;;;2.20;;
64816;SDS011;53289;45.602;11.904;2023-04-03T06:22:00;6.55;;;2.20;;
64816;SDS011;53289;45.602;11.904;2023-04-03T06:24:27;3.22;;;1.90;;
64816;SDS011;53289;45.602;11.904;2023-04-03T06:26:52;4.03;;;2.03;;
64816;SDS011;53289;45.602;11.904;2023-04-03T06:29:19;2.90;;;2.10;;
64816;SDS011;53289;45.602;11.904;2023-04-03T06:31:45;5.40;;;2.35;;
64816;SDS011;53289;45.602;11.904;2023-04-03T06:34:11;3.78;;;2.40;;
64816;SDS011;53289;45.602;11.904;2023-04-03T06:36:38;3.47;;;1.98;;
64816;SDS011;53289;45.602;11.904;2023-04-03T06:39:04;2.38;;;2.03;;
64816;SDS011;53289;45.602;11.904;2023-04-03T06:41:30;4.80;;;2.00;;
64816;SDS011;53289;45.602;11.904;2023-04-03T06:43:57;3.92;;;2.20;;
64816;SDS011;53289;45.602;11.904;2023-04-03T06:46:23;4.47;;;2.15;;
64816;SDS011;53289;45.602;11.904;2023-04-03T06:48:53;3.00;;;2.17;;
64816;SDS011;53289;45.602;11.904;2023-04-03T06:51:28;5.97;;;2.20;;
64816;SDS011;53289;45.602;11.904;2023-04-03T06:53:57;4.07;;;1.88;;
64816;SDS011;53289;45.602;11.904;2023-04-03T06:56:23;2.97;;;1.83;;
64816;SDS011;53289;45.602;11.904;2023-04-03T06:58:51;2.30;;;1.70;;
64816;SDS011;53289;45.602;11.904;2023-04-03T07:01:19;2.42;;;1.98;;
64816;SDS011;53289;45.602;11.904;2023-04-03T07:03:46;3.47;;;2.20;;
64816;SDS011;53289;45.602;11.904;2023-04-03T07:06:15;3.97;;;1.95;;
64816;SDS011;53289;45.602;11.904;2023-04-03T07:08:42;2.47;;;1.85;;
64816;SDS011;53289;45.602;11.904;2023-04-03T07:11:09;3.03;;;1.90;;
64816;SDS011;53289;45.602;11.904;2023-04-03T07:13:37;3.03;;;1.67;;
64816;SDS011;53289;45.602;11.904;2023-04-03T07:16:04;3.10;;;1.92;;
64816;SDS011;53289;45.602;11.904;2023-04-03T07:18:31;5.13;;;2.20;;
64816;SDS011;53289;45.602;11.904;2023-04-03T07:20:58;5.72;;;2.20;;
64816;SDS011;53289;45.602;11.904;2023-04-03T07:23:24;2.65;;;1.90;;
64816;SDS011;53289;45.602;11.904;2023-04-03T07:28:27;5.22;;;2.15;;
64816;SDS011;53289;45.602;11.904;2023-04-03T07:30:54;2.35;;;2.00;;
64816;SDS011;53289;45.602;11.904;2023-04-03T07:33:28;2.65;;;2.25;;
64816;SDS011;53289;45.602;11.904;2023-04-03T07:35:55;6.03;;;2.42;;
64816;SDS011;53289;45.602;11.904;2023-04-03T07:38:20;3.83;;;2.05;;
64816;SDS011;53289;45.602;11.904;2023-04-03T07:40:47;3.35;;;2.10;;
64816;SDS011;53289;45.602;11.904;2023-04-03T07:43:18;6.25;;;2.17;;
64816;SDS011;53289;45.602;11.904;2023-04-03T07:45:45;5.60;;;1.88;;
64816;SDS011;53289;45.602;11.904;2023-04-03T07:48:14;3.55;;;2.05;;
64816;SDS011;53289;45.602;11.904;2023-04-03T07:50:42;6.18;;;2.05;;
64816;SDS011;53289;45.602;11.904;2023-04-03T07:53:09;3.40;;;2.35;;
64816;SDS011;53289;45.602;11.904;2023-04-03T07:55:35;4.65;;;2.15;;
64816;SDS011;53289;45.602;11.904;2023-04-03T07:58:07;6.68;;;2.10;;
64816;SDS011;53289;45.602;11.904;2023-04-03T08:00:43;3.20;;;1.90;;
64816;SDS011;53289;45.602;11.904;2023-04-03T08:03:10;4.43;;;1.90;;
64816;SDS011;53289;45.602;11.904;2023-04-03T08:05:37;2.88;;;1.73;;
64816;SDS011;53289;45.602;11.904;2023-04-03T08:08:05;2.28;;;1.60;;
64816;SDS011;53289;45.602;11.904;2023-04-03T08:10:31;4.25;;;1.65;;
64816;SDS011;53289;45.602;11.904;2023-04-03T08:12:58;3.55;;;1.88;;
64816;SDS011;53289;45.602;11.904;2023-04-03T08:15:24;2.67;;;1.63;;
64816;SDS011;53289;45.602;11.904;2023-04-03T08:17:49;2.83;;;1.80;;
64816;SDS011;53289;45.602;11.904;2023-04-03T08:20:16;2.22;;;1.60;;
64816;SDS011;53289;45.602;11.904;2023-04-03T08:22:42;5.40;;;1.90;;
64816;SDS011;53289;45.602;11.904;2023-04-03T08:25:08;7.05;;;2.00;;
64816;SDS011;53289;45.602;11.904;2023-04-03T08:30:15;4.10;;;1.45;;
64816;SDS011;53289;45.602;11.904;2023-04-03T08:32:40;2.58;;;1.52;;
64816;SDS011;53289;45.602;11.904;2023-04-03T08:35:08;2.33;;;1.42;;
64816;SDS011;53289;45.602;11.904;2023-04-03T08:37:35;4.10;;;1.80;;
64816;SDS011;53289;45.602;11.904;2023-04-03T08:40:03;2.55;;;1.38;;
64816;SDS011;53289;45.602;11.904;2023-04-03T08:50:17;2.90;;;1.40;;
64816;SDS011;53289;45.602;11.904;2023-04-03T08:52:55;3.30;;;1.63;;
64816;SDS011;53289;45.602;11.904;2023-04-03T08:55:27;4.75;;;1.90;;
64816;SDS011;53289;45.602;11.904;2023-04-03T08:58:26;3.60;;;1.90;;
64816;SDS011;53289;45.602;11.904;2023-04-03T09:03:28;2.50;;;1.35;;
64816;SDS011;53289;45.602;11.904;2023-04-03T09:14:33;1.38;;;1.20;;
64816;SDS011;53289;45.602;11.904;2023-04-03T09:17:29;2.38;;;1.50;;
64816;SDS011;53289;45.602;11.904;2023-04-03T09:22:46;2.45;;;1.55;;
64816;SDS011;53289;45.602;11.904;2023-04-03T09:25:17;4.40;;;1.70;;
64816;SDS011;53289;45.602;11.904;2023-04-03T09:27:47;2.95;;;1.52;;
64816;SDS011;53289;45.602;11.904;2023-04-03T09:30:18;2.15;;;1.50;;
64816;SDS011;53289;45.602;11.904;2023-04-03T09:32:50;2.47;;;1.70;;
64816;SDS011;53289;45.602;11.904;2023-04-03T09:35:21;2.85;;;1.90;;
64816;SDS011;53289;45.602;11.904;2023-04-03T09:37:51;2.30;;;1.48;;
64816;SDS011;53289;45.602;11.904;2023-04-03T09:42:50;2.15;;;1.45;;
64816;SDS011;53289;45.602;11.904;2023-04-03T09:45:28;3.72;;;1.73;;
64816;SDS011;53289;45.602;11.904;2023-04-03T09:48:30;3.50;;;1.90;;
64816;SDS011;53289;45.602;11.904;2023-04-03T09:58:42;2.97;;;1.70;;
64816;SDS011;53289;45.602;11.904;2023-04-03T10:06:32;1.48;;;1.38;;
64816;SDS011;53289;45.602;11.904;2023-04-03T10:09:04;1.92;;;1.30;;
64816;SDS011;53289;45.602;11.904;2023-04-03T10:11:31;2.72;;;1.50;;
64816;SDS011;53289;45.602;11.904;2023-04-03T10:16:51;3.03;;;1.98;;
64816;SDS011;53289;45.602;11.904;2023-04-03T10:22:33;2.35;;;1.65;;
64816;SDS011;53289;45.602;11.904;2023-04-03T10:28:00;2.45;;;1.58;;
64816;SDS011;53289;45.602;11.904;2023-04-03T10:30:42;2.80;;;2.00;;
64816;SDS011;53289;45.602;11.904;2023-04-03T10:33:34;3.53;;;1.35;;
64816;SDS011;53289;45.602;11.904;2023-04-03T10:44:11;1.30;;;1.20;;
64816;SDS011;53289;45.602;11.904;2023-04-03T10:47:20;2.45;;;1.50;;
64816;SDS011;53289;45.602;11.904;2023-04-03T10:49:51;1.60;;;1.30;;
64816;SDS011;53289;45.602;11.904;2023-04-03T10:52:37;1.55;;;1.33;;
64816;SDS011;53289;45.602;11.904;2023-04-03T10:57:39;2.22;;;1.48;;
64816;SDS011;53289;45.602;11.904;2023-04-03T11:00:07;1.55;;;1.23;;
64816;SDS011;53289;45.602;11.904;2023-04-03T11:02:48;2.53;;;1.75;;
64816;SDS011;53289;45.602;11.904;2023-04-03T11:05:21;2.88;;;1.98;;
64816;SDS011;53289;45.602;11.904;2023-04-03T11:07:55;6.07;;;2.58;;
64816;SDS011;53289;45.602;11.904;2023-04-03T11:10:30;2.28;;;2.08;;
64816;SDS011;53289;45.602;11.904;2023-04-03T11:16:02;1.73;;;1.55;;
64816;SDS011;53289;45.602;11.904;2023-04-03T11:18:32;1.77;;;1.40;;
64816;SDS011;53289;45.602;11.904;2023-04-03T11:21:17;1.83;;;1.60;;
64816;SDS011;53289;45.602;11.904;2023-04-03T11:23:47;3.50;;;1.60;;
64816;SDS011;53289;45.602;11.904;2023-04-03T11:26:18;1.85;;;1.55;;
64816;SDS011;53289;45.602;11.904;2023-04-03T11:28:52;3.53;;;1.80;;
64816;SDS011;53289;45.602;11.904;2023-04-03T11:36:38;3.00;;;1.65;;
64816;SDS011;53289;45.602;11.904;2023-04-03T11:39:30;3.80;;;1.45;;
64816;SDS011;53289;45.602;11.904;2023-04-03T11:47:53;3.28;;;2.13;;
64816;SDS011;53289;45.602;11.904;2023-04-03T12:16:20;2.53;;;1.30;;
64816;SDS011;53289;45.602;11.904;2023-04-03T12:40:51;2.10;;;1.42;;
64816;SDS011;53289;45.602;11.904;2023-04-03T12:43:34;3.60;;;1.65;;
64816;SDS011;53289;45.602;11.904;2023-04-03T12:48:55;2.42;;;1.50;;
64816;SDS011;53289;45.602;11.904;2023-04-03T12:54:03;3.60;;;1.90;;
64816;SDS011;53289;45.602;11.904;2023-04-03T12:56:38;2.70;;;1.70;;
64816;SDS011;53289;45.602;11.904;2023-04-03T13:01:41;2.80;;;1.60;;
64816;SDS011;53289;45.602;11.904;2023-04-03T13:04:09;3.38;;;1.80;;
64816;SDS011;53289;45.602;11.904;2023-04-03T13:06:41;3.95;;;2.00;;
64816;SDS011;53289;45.602;11.904;2023-04-03T13:09:42;2.70;;;1.60;;
64816;SDS011;53289;45.602;11.904;2023-04-03T13:12:15;3.30;;;1.80;;
64816;SDS011;53289;45.602;11.904;2023-04-03T13:14:49;2.80;;;1.60;;
64816;SDS011;53289;45.602;11.904;2023-04-03T13:17:17;1.98;;;1.55;;
64816;SDS011;53289;45.602;11.904;2023-04-03T13:19:45;3.28;;;1.50;;
64816;SDS011;53289;45.602;11.904;2023-04-03T13:22:26;7.50;;;1.95;;
64816;SDS011;53289;45.602;11.904;2023-04-03T13:24:59;4.03;;;1.70;;
64816;SDS011;53289;45.602;11.904;2023-04-03T13:27:31;2.67;;;1.70;;
64816;SDS011;53289;45.602;11.904;2023-04-03T13:29:58;5.00;;;1.88;;
64816;SDS011;53289;45.602;11.904;2023-04-03T13:32:26;3.33;;;1.50;;
64816;SDS011;53289;45.602;11.904;2023-04-03T13:34:54;3.33;;;1.70;;
64816;SDS011;53289;45.602;11.904;2023-04-03T13:37:31;4.05;;;1.45;;
64816;SDS011;53289;45.602;11.904;2023-04-03T13:42:32;4.25;;;1.77;;
64816;SDS011;53289;45.602;11.904;2023-04-03T13:48:08;2.60;;;1.60;;
64816;SDS011;53289;45.602;11.904;2023-04-03T13:50:49;3.40;;;1.50;;
64816;SDS011;53289;45.602;11.904;2023-04-03T13:53:42;3.13;;;1.30;;
64816;SDS011;53289;45.602;11.904;2023-04-03T13:58:59;4.10;;;1.40;;
64816;SDS011;53289;45.602;11.904;2023-04-03T14:06:46;4.15;;;2.17;;
64816;SDS011;53289;45.602;11.904;2023-04-03T14:09:12;6.85;;;2.20;;
64816;SDS011;53289;45.602;11.904;2023-04-03T14:11:39;4.75;;;1.75;;
64816;SDS011;53289;45.602;11.904;2023-04-03T14:14:19;3.35;;;1.80;;
64816;SDS011;53289;45.602;11.904;2023-04-03T14:16:50;1.90;;;1.67;;
64816;SDS011;53289;45.602;11.904;2023-04-03T14:19:20;4.57;;;1.90;;
64816;SDS011;53289;45.602;11.904;2023-04-03T14:21:56;5.45;;;2.00;;
64816;SDS011;53289;45.602;11.904;2023-04-03T14:24:22;2.75;;;2.22;;
64816;SDS011;53289;45.602;11.904;2023-04-03T14:26:50;2.70;;;2.05;;
64816;SDS011;53289;45.602;11.904;2023-04-03T14:29:18;2.83;;;2.20;;
64816;SDS011;53289;45.602;11.904;2023-04-03T14:31:44;4.10;;;2.55;;
64816;SDS011;53289;45.602;11.904;2023-04-03T14:34:14;2.60;;;2.20;;
64816;SDS011;53289;45.602;11.904;2023-04-03T14:36:40;5.22;;;2.03;;
64816;SDS011;53289;45.602;11.904;2023-04-03T14:39:10;2.45;;;2.00;;
64816;SDS011;53289;45.602;11.904;2023-04-03T14:41:42;3.35;;;1.83;;
64816;SDS011;53289;45.602;11.904;2023-04-03T14:44:08;2.88;;;1.80;;
64816;SDS011;53289;45.602;11.904;2023-04-03T14:46:35;2.53;;;1.80;;
64816;SDS011;53289;45.602;11.904;2023-04-03T14:49:03;3.47;;;1.90;;
64816;SDS011;53289;45.602;11.904;2023-04-03T14:51:35;3.90;;;1.70;;
64816;SDS011;53289;45.602;11.904;2023-04-03T14:54:03;4.25;;;1.95;;
64816;SDS011;53289;45.602;11.904;2023-04-03T14:56:30;2.45;;;1.70;;
64816;SDS011;53289;45.602;11.904;2023-04-03T14:58:58;3.42;;;2.08;;
64816;SDS011;53289;45.602;11.904;2023-04-03T15:01:25;3.83;;;2.17;;
64816;SDS011;53289;45.602;11.904;2023-04-03T15:03:51;4.68;;;1.73;;
64816;SDS011;53289;45.602;11.904;2023-04-03T15:06:17;9.73;;;2.25;;
64816;SDS011;53289;45.602;11.904;2023-04-03T15:08:43;9.98;;;2.22;;
64816;SDS011;53289;45.602;11.904;2023-04-03T15:11:12;1.80;;;1.50;;
64816;SDS011;53289;45.602;11.904;2023-04-03T15:13:39;5.65;;;1.77;;
64816;SDS011;53289;45.602;11.904;2023-04-03T15:16:05;7.70;;;2.10;;
64816;SDS011;53289;45.602;11.904;2023-04-03T15:18:41;4.22;;;1.88;;
64816;SDS011;53289;45.602;11.904;2023-04-03T15:21:08;6.43;;;2.03;;
64816;SDS011;53289;45.602;11.904;2023-04-03T15:23:34;4.82;;;1.73;;
64816;SDS011;53289;45.602;11.904;2023-04-03T15:26:00;4.10;;;1.95;;
64816;SDS011;53289;45.602;11.904;2023-04-03T15:30:55;6.57;;;1.65;;
64816;SDS011;53289;45.602;11.904;2023-04-03T15:33:21;5.03;;;2.13;;
64816;SDS011;53289;45.602;11.904;2023-04-03T15:35:47;7.50;;;2.25;;
64816;SDS011;53289;45.602;11.904;2023-04-03T15:38:13;7.65;;;1.95;;
64816;SDS011;53289;45.602;11.904;2023-04-03T15:40:40;8.45;;;2.20;;
64816;SDS011;53289;45.602;11.904;2023-04-03T15:43:07;9.10;;;2.70;;
64816;SDS011;53289;45.602;11.904;2023-04-03T15:45:33;16.77;;;3.55;;
64816;SDS011;53289;45.602;11.904;2023-04-03T15:48:01;21.27;;;3.75;;
64816;SDS011;53289;45.602;11.904;2023-04-03T15:50:28;20.20;;;4.22;;
64816;SDS011;53289;45.602;11.904;2023-04-03T15:52:55;11.60;;;3.55;;
64816;SDS011;53289;45.602;11.904;2023-04-03T15:55:23;9.48;;;3.60;;
64816;SDS011;53289;45.602;11.904;2023-04-03T15:57:51;14.25;;;3.83;;
64816;SDS011;53289;45.602;11.904;2023-04-03T16:00:17;11.18;;;3.30;;
64816;SDS011;53289;45.602;11.904;2023-04-03T16:02:44;15.40;;;4.32;;
64816;SDS011;53289;45.602;11.904;2023-04-03T16:05:12;15.05;;;3.72;;
64816;SDS011;53289;45.602;11.904;2023-04-03T16:07:40;13.98;;;3.45;;
64816;SDS011;53289;45.602;11.904;2023-04-03T16:10:07;12.00;;;3.67;;
64816;SDS011;53289;45.602;11.904;2023-04-03T16:12:34;20.73;;;4.45;;
64816;SDS011;53289;45.602;11.904;2023-04-03T16:15:01;15.18;;;4.45;;
64816;SDS011;53289;45.602;11.904;2023-04-03T16:17:28;23.20;;;5.65;;
64816;SDS011;53289;45.602;11.904;2023-04-03T16:19:55;16.15;;;5.18;;
64816;SDS011;53289;45.602;11.904;2023-04-03T16:22:21;25.05;;;6.47;;
64816;SDS011;53289;45.602;11.904;2023-04-03T16:24:49;20.73;;;6.07;;
64816;SDS011;53289;45.602;11.904;2023-04-03T16:27:15;27.10;;;6.35;;
64816;SDS011;53289;45.602;11.904;2023-04-03T16:29:42;20.10;;;6.15;;
64816;SDS011;53289;45.602;11.904;2023-04-03T16:32:08;32.15;;;7.68;;
64816;SDS011;53289;45.602;11.904;2023-04-03T16:34:34;28.27;;;7.53;;
64816;SDS011;53289;45.602;11.904;2023-04-03T16:37:00;24.42;;;7.28;;
64816;SDS011;53289;45.602;11.904;2023-04-03T16:39:26;23.70;;;7.95;;
64816;SDS011;53289;45.602;11.904;2023-04-03T16:41:52;27.15;;;8.80;;
64816;SDS011;53289;45.602;11.904;2023-04-03T16:44:18;23.40;;;9.82;;
64816;SDS011;53289;45.602;11.904;2023-04-03T16:46:44;31.40;;;10.20;;
64816;SDS011;53289;45.602;11.904;2023-04-03T16:49:10;23.20;;;9.80;;
64816;SDS011;69037;45.634;11.704;2023-04-03T16:51:36;26.45;;;9.40;;
64816;SDS011;69037;45.634;11.704;2023-04-03T16:54:02;28.38;;;8.80;;
64816;SDS011;69037;45.634;11.704;2023-04-03T16:56:28;27.05;;;9.48;;
64816;SDS011;69037;45.634;11.704;2023-04-03T16:58:54;20.48;;;7.60;;
64816;SDS011;69037;45.634;11.704;2023-04-03T17:01:21;18.88;;;6.78;;
64816;SDS011;69037;45.634;11.704;2023-04-03T17:03:48;20.27;;;7.13;;
64816;SDS011;69037;45.634;11.704;2023-04-03T17:06:18;24.52;;;6.63;;
64816;SDS011;69037;45.634;11.704;2023-04-03T17:08:46;19.10;;;6.43;;
64816;SDS011;69037;45.634;11.704;2023-04-03T17:11:13;19.02;;;5.70;;
64816;SDS011;69037;45.634;11.704;2023-04-03T17:13:39;16.17;;;5.45;;
64816;SDS011;69037;45.634;11.704;2023-04-03T17:16:07;20.75;;;6.00;;
64816;SDS011;69037;45.634;11.704;2023-04-03T17:18:36;16.77;;;5.45;;